createdAt,value
2022-12-20T00:01:00.609Z,4.13
2022-12-20T00:03:28.234Z,4.09
2022-12-20T00:05:55.916Z,4.05
2022-12-20T00:08:23.547Z,4.27
2022-12-20T00:10:52.530Z,4.17
2022-12-20T00:13:20.100Z,4.14
2022-12-20T00:15:47.731Z,4.06
2022-12-20T00:18:15.392Z,4.03
2022-12-20T00:20:43.022Z,4.04
2022-12-20T00:23:10.630Z,3.98
2022-12-20T00:25:38.234Z,3.93
2022-12-20T00:28:07.286Z,3.88
2022-12-20T00:30:36.633Z,3.87
2022-12-20T00:33:04.206Z,3.83
2022-12-20T00:35:31.835Z,3.83
2022-12-20T00:37:59.437Z,3.80
2022-12-20T00:40:27.386Z,3.80
2022-12-20T00:42:54.965Z,3.79
2022-12-20T00:45:23.913Z,3.79
2022-12-20T00:47:51.535Z,3.81
2022-12-20T00:50:19.099Z,3.83
2022-12-20T00:52:46.788Z,3.97
2022-12-20T00:55:14.377Z,4.05
2022-12-20T00:57:41.985Z,4.05
2022-12-20T01:00:11.499Z,4.01
2022-12-20T01:02:40.563Z,3.98
2022-12-20T01:05:08.973Z,4.06
2022-12-20T01:07:36.585Z,4.10
2022-12-20T01:10:04.448Z,4.09
2022-12-20T01:12:32.079Z,4.16
2022-12-20T01:14:59.666Z,4.58
2022-12-20T01:17:27.300Z,4.51
2022-12-20T01:19:56.258Z,4.40
2022-12-20T01:22:23.886Z,4.31
2022-12-20T01:24:51.699Z,4.24
2022-12-20T01:27:19.298Z,4.16
2022-12-20T01:29:46.938Z,4.21
2022-12-20T01:32:14.606Z,4.26
2022-12-20T01:34:42.677Z,4.21
2022-12-20T01:37:11.584Z,4.27
2022-12-20T01:39:39.609Z,4.47
2022-12-20T01:42:07.333Z,4.38
2022-12-20T01:45:01.433Z,4.55
2022-12-20T01:47:32.686Z,4.47
2022-12-20T01:50:01.347Z,4.53
2022-12-20T01:52:34.895Z,4.38
2022-12-20T01:55:08.452Z,4.29
2022-12-20T01:57:40.865Z,4.23
2022-12-20T02:00:10.271Z,4.14
2022-12-20T02:02:39.183Z,4.10
2022-12-20T02:05:07.838Z,4.10
2022-12-20T02:07:39.705Z,4.13
2022-12-20T02:10:10.177Z,4.16
2022-12-20T02:12:42.617Z,4.16
2022-12-20T02:15:22.787Z,4.19
2022-12-20T02:18:02.613Z,4.18
2022-12-20T02:21:07.137Z,4.18
2022-12-20T02:24:04.018Z,4.39
2022-12-20T02:27:03.050Z,4.38
2022-12-20T02:29:36.383Z,4.50
2022-12-20T02:32:12.820Z,4.46
2022-12-20T02:34:42.382Z,4.41
2022-12-20T02:37:10.256Z,4.30
2022-12-20T02:39:42.387Z,4.30
2022-12-20T02:42:12.294Z,4.29
2022-12-20T02:45:01.492Z,4.29
2022-12-20T02:47:35.210Z,4.28
2022-12-20T02:50:05.345Z,4.46
2022-12-20T02:52:34.155Z,4.47
2022-12-20T02:55:03.092Z,4.51
2022-12-20T02:57:38.841Z,4.86
2022-12-20T03:00:09.828Z,5.30
2022-12-20T03:02:53.192Z,5.46
2022-12-20T03:05:22.799Z,5.28
2022-12-20T03:07:51.057Z,5.22
2022-12-20T03:10:19.588Z,5.12
2022-12-20T03:12:47.376Z,5.05
2022-12-20T03:15:15.379Z,4.89
2022-12-20T03:17:44.415Z,4.86
2022-12-20T03:20:12.287Z,5.08
2022-12-20T03:22:39.969Z,5.19
2022-12-20T03:25:08.465Z,5.20
2022-12-20T03:27:36.089Z,5.36
2022-12-20T03:30:04.527Z,5.21
2022-12-20T03:32:32.139Z,5.08
2022-12-20T03:35:01.100Z,4.92
2022-12-20T03:37:28.763Z,4.91
2022-12-20T03:39:56.385Z,5.33
2022-12-20T03:42:24.005Z,5.21
2022-12-20T03:44:51.609Z,5.03
2022-12-20T03:47:19.416Z,4.99
2022-12-20T03:49:47.024Z,5.11
2022-12-20T03:52:16.313Z,5.07
2022-12-20T03:54:43.916Z,5.43
2022-12-20T03:57:11.556Z,5.25
2022-12-20T03:59:39.169Z,5.16
2022-12-20T04:02:06.851Z,5.01
2022-12-20T04:04:34.547Z,4.97
2022-12-20T04:07:02.316Z,5.06
2022-12-20T04:09:31.540Z,5.15
2022-12-20T04:11:59.137Z,5.03
2022-12-20T04:14:27.085Z,5.06
2022-12-20T04:16:54.669Z,5.18
2022-12-20T04:19:22.254Z,5.56
2022-12-20T04:21:49.873Z,5.60
2022-12-20T04:24:17.986Z,5.61
2022-12-20T04:26:46.926Z,5.71
2022-12-20T04:29:14.569Z,5.71
2022-12-20T04:31:42.649Z,5.83
2022-12-20T04:34:10.436Z,5.70
2022-12-20T04:36:38.044Z,5.78
2022-12-20T04:39:05.741Z,5.66
2022-12-20T04:41:33.393Z,5.81
2022-12-20T04:44:02.352Z,5.87
2022-12-20T04:46:30.096Z,5.89
2022-12-20T04:48:59.564Z,5.86
2022-12-20T04:51:27.665Z,5.88
2022-12-20T04:53:54.454Z,5.62
2022-12-20T04:56:25.118Z,5.53
2022-12-20T04:58:54.786Z,5.36
2022-12-20T05:01:24.065Z,5.30
2022-12-20T05:03:52.309Z,5.30
2022-12-20T05:06:20.015Z,5.24
2022-12-20T05:08:48.102Z,5.38
2022-12-20T05:11:15.835Z,5.49
2022-12-20T05:13:43.450Z,5.72
2022-12-20T05:16:11.271Z,5.73
2022-12-20T05:18:46.470Z,5.38
2022-12-20T05:21:33.997Z,5.17
2022-12-20T05:24:19.474Z,5.07
2022-12-20T05:26:47.054Z,5.18
2022-12-20T05:29:14.620Z,5.37
2022-12-20T05:31:42.347Z,5.29
2022-12-20T05:34:11.344Z,5.21
2022-12-20T05:36:38.947Z,5.13
2022-12-20T05:39:07.112Z,5.32
2022-12-20T05:41:34.719Z,5.71
2022-12-20T05:44:02.342Z,5.86
2022-12-20T05:46:29.936Z,5.91
2022-12-20T05:48:57.572Z,5.75
2022-12-20T05:51:26.682Z,5.57
2022-12-20T05:53:54.251Z,5.47
2022-12-20T05:56:21.886Z,5.34
2022-12-20T05:58:49.483Z,5.31
2022-12-20T06:01:17.155Z,5.40
2022-12-20T06:03:45.748Z,5.54
2022-12-20T06:06:15.060Z,5.54
2022-12-20T06:08:44.476Z,5.49
2022-12-20T06:11:12.233Z,5.43
2022-12-20T06:13:39.847Z,5.29
2022-12-20T06:16:08.278Z,5.24
2022-12-20T06:18:35.903Z,5.26
2022-12-20T06:21:03.583Z,5.12
2022-12-20T06:23:31.186Z,5.06
2022-12-20T06:26:00.126Z,5.11
2022-12-20T06:28:27.757Z,5.14
2022-12-20T06:30:56.032Z,5.19
2022-12-20T06:33:23.733Z,5.09
2022-12-20T06:35:52.202Z,4.99
2022-12-20T06:38:20.088Z,4.92
2022-12-20T06:40:47.734Z,4.90
2022-12-20T06:43:17.687Z,5.16
2022-12-20T06:45:45.368Z,5.29
2022-12-20T06:48:13.262Z,5.31
2022-12-20T06:50:40.931Z,5.31
2022-12-20T06:53:08.820Z,5.23
2022-12-20T06:55:36.397Z,5.31
2022-12-20T06:58:04.982Z,5.15
2022-12-20T07:00:34.272Z,5.11
2022-12-20T07:03:01.964Z,5.09
2022-12-20T07:05:29.637Z,5.14
2022-12-20T07:07:57.335Z,5.19
2022-12-20T07:10:29.252Z,5.11
2022-12-20T07:13:01.906Z,5.06
2022-12-20T07:15:29.828Z,5.06
2022-12-20T07:17:58.739Z,5.01
2022-12-20T07:20:26.358Z,5.09
2022-12-20T07:22:54.090Z,5.17
2022-12-20T07:25:21.891Z,5.14
2022-12-20T07:27:49.758Z,5.11
2022-12-20T07:30:18.035Z,5.03
2022-12-20T07:32:45.642Z,5.03
2022-12-20T07:35:15.714Z,5.02
2022-12-20T07:37:43.785Z,5.12
2022-12-20T07:40:13.231Z,5.19
2022-12-20T07:42:48.023Z,5.17
2022-12-20T07:45:16.403Z,5.19
2022-12-20T07:47:44.133Z,5.87
2022-12-20T07:50:12.304Z,6.04
2022-12-20T07:52:45.851Z,6.05
2022-12-20T07:55:14.229Z,5.99
2022-12-20T07:57:45.928Z,6.03
2022-12-20T08:00:15.186Z,6.09
2022-12-20T08:02:47.562Z,5.98
2022-12-20T08:05:16.093Z,6.10
2022-12-20T08:07:47.076Z,5.97
2022-12-20T08:10:16.962Z,5.88
2022-12-20T08:12:46.125Z,5.79
2022-12-20T08:15:14.164Z,5.82
2022-12-20T08:17:41.772Z,5.69
2022-12-20T08:20:10.848Z,5.65
2022-12-20T08:22:38.459Z,5.54
2022-12-20T08:25:08.912Z,5.47
2022-12-20T08:27:36.598Z,5.42
2022-12-20T08:30:04.561Z,5.57
2022-12-20T08:32:32.133Z,5.68
2022-12-20T08:34:59.726Z,5.68
2022-12-20T08:37:27.305Z,5.73
2022-12-20T08:39:54.898Z,5.60
2022-12-20T08:42:23.861Z,5.51
2022-12-20T08:44:52.564Z,5.43
2022-12-20T08:47:20.179Z,5.44
2022-12-20T08:49:48.323Z,5.42
2022-12-20T08:52:16.121Z,5.82
2022-12-20T08:54:43.856Z,5.84
2022-12-20T08:57:11.476Z,5.69
2022-12-20T08:59:40.503Z,5.64
2022-12-20T09:02:08.451Z,5.60
2022-12-20T09:04:36.315Z,5.59
2022-12-20T09:07:03.971Z,5.67
2022-12-20T09:09:32.242Z,5.61
2022-12-20T09:11:59.889Z,5.88
2022-12-20T09:14:27.845Z,6.06
2022-12-20T09:16:56.820Z,6.30
2022-12-20T09:19:24.433Z,6.62
2022-12-20T09:21:52.028Z,6.66
2022-12-20T09:24:19.706Z,6.44
2022-12-20T09:26:49.989Z,6.66
2022-12-20T09:29:27.009Z,6.73
2022-12-20T09:31:58.695Z,6.67
2022-12-20T09:34:26.530Z,6.78
2022-12-20T09:36:54.140Z,6.58
2022-12-20T09:39:22.218Z,6.65
2022-12-20T09:41:50.170Z,6.82
2022-12-20T09:44:21.445Z,6.88
2022-12-20T09:46:55.323Z,6.90
2022-12-20T09:49:28.998Z,6.72
2022-12-20T09:52:17.513Z,6.65
2022-12-20T09:54:54.548Z,6.89
2022-12-20T09:57:30.978Z,6.91
2022-12-20T09:59:58.957Z,6.97
2022-12-20T10:05:26.690Z,6.95
2022-12-20T10:08:02.146Z,7.00
2022-12-20T10:10:52.489Z,6.77
2022-12-20T10:13:36.117Z,6.87
2022-12-20T10:16:17.360Z,6.74
2022-12-20T10:18:57.276Z,7.03
2022-12-20T10:21:34.967Z,7.13
2022-12-20T10:24:06.279Z,7.15
2022-12-20T10:26:35.612Z,6.97
2022-12-20T10:29:03.201Z,7.02
2022-12-20T10:31:30.844Z,7.08
2022-12-20T10:33:58.866Z,7.22
2022-12-20T10:36:30.128Z,7.23
2022-12-20T10:38:59.228Z,7.20
2022-12-20T10:41:28.926Z,7.07
2022-12-20T10:44:00.971Z,6.96
2022-12-20T10:46:42.113Z,6.75
2022-12-20T10:49:28.483Z,6.59
2022-12-20T10:51:59.543Z,6.72
2022-12-20T10:54:32.039Z,6.90
2022-12-20T10:57:02.233Z,7.01
2022-12-20T10:59:34.580Z,7.20
2022-12-20T11:02:03.474Z,7.11
2022-12-20T11:04:33.426Z,6.99
2022-12-20T11:07:04.788Z,7.00
2022-12-20T11:09:34.361Z,7.05
2022-12-20T11:12:07.684Z,7.09
2022-12-20T11:14:39.556Z,7.22
2022-12-20T11:17:20.982Z,7.48
2022-12-20T11:20:23.068Z,7.30
2022-12-20T11:22:59.532Z,7.34
2022-12-20T11:25:48.333Z,7.44
2022-12-20T11:28:31.980Z,7.36
2022-12-20T11:31:12.287Z,7.17
2022-12-20T11:33:53.806Z,7.07
2022-12-20T11:36:34.656Z,6.92
2022-12-20T11:39:10.939Z,6.92
2022-12-20T11:41:45.252Z,6.85
2022-12-20T11:44:26.521Z,6.82
2022-12-20T11:47:09.715Z,7.54
2022-12-20T11:50:01.430Z,7.45
2022-12-20T11:52:36.096Z,7.63
2022-12-20T11:55:17.842Z,7.91
2022-12-20T11:58:16.809Z,7.98
2022-12-20T12:00:41.228Z,8.02
2022-12-20T12:03:14.926Z,8.03
2022-12-20T12:05:46.698Z,7.97
2022-12-20T12:08:19.887Z,8.04
2022-12-20T12:10:58.077Z,7.93
2022-12-20T12:13:29.325Z,7.78
2022-12-20T12:16:04.346Z,7.59
2022-12-20T12:18:34.016Z,7.41
2022-12-20T12:21:09.336Z,7.28
2022-12-20T12:23:46.256Z,7.43
2022-12-20T12:26:21.227Z,7.60
2022-12-20T12:28:54.324Z,7.69
2022-12-20T12:31:28.013Z,7.79
2022-12-20T12:34:07.326Z,7.66
2022-12-20T12:37:06.431Z,7.46
2022-12-20T12:39:58.594Z,7.37
2022-12-20T12:42:49.347Z,7.39
2022-12-20T12:45:21.835Z,7.30
2022-12-20T12:47:55.081Z,7.20
2022-12-20T12:50:27.408Z,7.15
2022-12-20T12:52:58.163Z,7.13
2022-12-20T12:55:41.285Z,7.41
2022-12-20T12:58:34.144Z,7.58
2022-12-20T13:01:05.410Z,7.91
2022-12-20T13:03:47.454Z,8.10
2022-12-20T13:06:56.865Z,8.15
2022-12-20T13:09:39.219Z,8.07
2022-12-20T13:12:49.883Z,8.10
2022-12-20T13:15:53.904Z,8.16
2022-12-20T13:18:25.500Z,8.01
2022-12-20T13:21:32.744Z,7.77
2022-12-20T13:24:38.930Z,7.70
2022-12-20T13:27:28.736Z,7.86
2022-12-20T13:30:03.451Z,7.77
2022-12-20T13:32:56.642Z,7.58
2022-12-20T13:35:42.006Z,7.44
2022-12-20T13:38:39.557Z,7.37
2022-12-20T13:41:20.139Z,7.32
2022-12-20T13:43:49.754Z,7.28
2022-12-20T13:46:23.317Z,7.26
2022-12-20T13:48:57.122Z,7.25
2022-12-20T13:51:26.182Z,7.24
2022-12-20T13:53:55.522Z,7.22
2022-12-20T13:56:37.339Z,7.23
2022-12-20T13:59:08.286Z,7.21
2022-12-20T14:01:36.914Z,7.15
2022-12-20T14:04:07.950Z,7.14
2022-12-20T14:06:36.173Z,7.12
2022-12-20T14:09:05.728Z,7.15
2022-12-20T14:11:33.404Z,7.20
2022-12-20T14:14:02.587Z,7.23
2022-12-20T14:16:32.075Z,7.24
2022-12-20T14:19:04.037Z,7.28
2022-12-20T14:21:36.851Z,7.35
2022-12-20T14:24:05.231Z,7.33
2022-12-20T14:26:39.903Z,7.30
2022-12-20T14:29:13.883Z,7.28
2022-12-20T14:31:43.785Z,7.25
2022-12-20T14:34:17.021Z,7.23
2022-12-20T14:36:47.830Z,7.20
2022-12-20T14:39:26.066Z,7.16
2022-12-20T14:41:58.480Z,7.13
2022-12-20T14:44:28.036Z,7.17
2022-12-20T14:46:58.139Z,7.53
2022-12-20T14:49:30.238Z,7.35
2022-12-20T14:52:15.494Z,7.22
2022-12-20T14:57:41.257Z,7.04
2022-12-20T15:00:22.239Z,6.99
2022-12-20T15:02:53.714Z,6.95
2022-12-20T15:05:42.044Z,6.91
2022-12-20T15:08:16.028Z,6.91
2022-12-20T15:10:48.069Z,6.87
2022-12-20T15:13:17.914Z,6.86
2022-12-20T15:15:46.079Z,6.83
2022-12-20T15:18:14.495Z,6.82
2022-12-20T15:20:43.524Z,6.81
2022-12-20T15:23:18.391Z,6.79
2022-12-20T15:25:47.006Z,6.78
2022-12-20T15:28:16.482Z,6.72
2022-12-20T15:30:44.323Z,6.70
2022-12-20T15:33:17.429Z,6.69
2022-12-20T15:35:46.042Z,6.66
2022-12-20T15:38:17.497Z,6.63
2022-12-20T15:40:49.237Z,6.59
2022-12-20T15:43:19.070Z,6.54
2022-12-20T15:45:51.343Z,6.51
2022-12-20T15:48:20.921Z,6.47
2022-12-20T15:50:54.393Z,6.46
2022-12-20T15:53:27.320Z,6.45
2022-12-20T15:55:57.487Z,6.44
2022-12-20T15:58:25.844Z,6.62
2022-12-20T16:00:56.104Z,6.69
2022-12-20T16:03:25.907Z,6.64
2022-12-20T16:05:53.615Z,6.58
2022-12-20T16:08:21.186Z,6.52
2022-12-20T16:10:52.537Z,6.46
2022-12-20T16:13:25.003Z,6.42
2022-12-20T16:15:52.862Z,6.38
2022-12-20T16:18:20.479Z,6.37
2022-12-20T16:20:48.041Z,6.36
2022-12-20T16:23:19.045Z,6.39
2022-12-20T16:25:47.534Z,7.00
2022-12-20T16:28:15.137Z,7.17
2022-12-20T16:30:50.882Z,7.13
2022-12-20T16:33:22.120Z,6.98
2022-12-20T16:35:49.772Z,6.73
2022-12-20T16:38:18.182Z,6.57
2022-12-20T16:40:45.853Z,6.52
2022-12-20T16:43:16.545Z,6.47
2022-12-20T16:45:45.517Z,6.42
2022-12-20T16:48:13.141Z,6.41
2022-12-20T16:50:43.275Z,6.40
2022-12-20T16:53:16.404Z,6.37
2022-12-20T16:55:44.411Z,6.34
2022-12-20T16:58:12.597Z,6.34
2022-12-20T17:00:40.408Z,6.33
2022-12-20T17:03:09.480Z,6.32
2022-12-20T17:05:39.491Z,6.32
2022-12-20T17:10:52.826Z,6.52
2022-12-20T17:13:20.418Z,6.68
2022-12-20T17:15:49.020Z,6.58
2022-12-20T17:18:18.118Z,6.53
2022-12-20T17:20:46.040Z,6.50
2022-12-20T17:26:00.791Z,6.44
2022-12-20T17:28:28.370Z,6.43
2022-12-20T17:30:55.993Z,6.53
2022-12-20T17:33:24.941Z,6.51
2022-12-20T17:35:52.526Z,6.48
2022-12-20T17:38:20.111Z,6.46
2022-12-20T17:40:47.712Z,6.45
2022-12-20T17:43:15.519Z,6.43
2022-12-20T17:45:43.403Z,6.42
2022-12-20T17:48:11.754Z,6.42
2022-12-20T17:50:41.032Z,6.44
2022-12-20T17:53:10.162Z,6.44
2022-12-20T17:55:37.769Z,6.43
2022-12-20T17:58:05.386Z,6.44
2022-12-20T18:00:38.885Z,6.45
2022-12-20T18:03:07.772Z,6.47
2022-12-20T18:05:35.597Z,6.46
2022-12-20T18:08:04.727Z,6.44
2022-12-20T18:10:32.882Z,6.45
2022-12-20T18:13:00.466Z,6.45
2022-12-20T18:15:28.037Z,6.56
2022-12-20T18:17:55.676Z,6.55
2022-12-20T18:20:23.648Z,6.53
2022-12-20T18:22:51.284Z,6.74
2022-12-20T18:25:20.287Z,6.66
2022-12-20T18:27:47.880Z,6.59
2022-12-20T18:30:15.758Z,6.58
2022-12-20T18:32:43.487Z,6.69
2022-12-20T18:35:11.490Z,6.67
2022-12-20T18:37:39.365Z,6.64
2022-12-20T18:40:08.988Z,6.58
2022-12-20T18:42:37.957Z,6.53
2022-12-20T18:45:06.407Z,6.50
2022-12-20T18:47:34.001Z,6.55
2022-12-20T18:50:01.580Z,6.53
2022-12-20T18:52:29.271Z,6.53
2022-12-20T18:54:56.882Z,6.51
2022-12-20T18:57:24.459Z,6.51
2022-12-20T18:59:53.466Z,6.47
2022-12-20T19:02:21.192Z,6.45
2022-12-20T19:04:48.857Z,6.43
2022-12-20T19:07:16.594Z,6.52
2022-12-20T19:09:44.272Z,6.48
2022-12-20T19:12:12.062Z,6.46
2022-12-20T19:14:39.802Z,6.49
2022-12-20T19:17:09.201Z,6.47
2022-12-20T19:19:36.929Z,6.58
2022-12-20T19:22:04.511Z,6.50
2022-12-20T19:24:32.118Z,6.45
2022-12-20T19:26:59.703Z,6.47
2022-12-20T19:29:27.357Z,6.45
2022-12-20T19:31:55.385Z,6.46
2022-12-20T19:34:24.597Z,6.63
2022-12-20T19:36:52.948Z,7.11
2022-12-20T19:39:22.923Z,7.30
2022-12-20T19:42:21.485Z,7.39
2022-12-20T19:44:39.017Z,7.38
2022-12-20T19:47:06.966Z,7.41
2022-12-20T19:49:36.685Z,7.31
2022-12-20T19:52:05.650Z,7.24
2022-12-20T19:54:33.408Z,7.21
2022-12-20T19:57:01.014Z,7.31
2022-12-20T19:59:30.197Z,7.35
2022-12-20T20:01:58.016Z,7.31
2022-12-20T20:04:25.789Z,7.23
2022-12-20T20:06:56.312Z,7.15
2022-12-20T20:09:24.140Z,7.00
2022-12-20T20:11:51.694Z,6.81
2022-12-20T20:14:19.298Z,6.68
2022-12-20T20:16:46.985Z,6.62
2022-12-20T20:19:14.613Z,7.01
2022-12-20T20:21:42.315Z,7.12
2022-12-20T20:24:11.340Z,6.95
2022-12-20T20:26:38.928Z,6.80
2022-12-20T20:29:07.139Z,6.95
2022-12-20T20:31:34.802Z,7.18
2022-12-20T20:34:02.475Z,7.19
2022-12-20T20:36:30.618Z,7.35
2022-12-20T20:38:58.296Z,7.38
2022-12-20T20:41:27.320Z,7.31
2022-12-20T20:43:54.880Z,7.28
2022-12-20T20:46:22.674Z,7.23
2022-12-20T20:48:50.319Z,7.21
2022-12-20T20:51:18.003Z,7.25
2022-12-20T20:53:45.641Z,7.28
2022-12-20T20:56:13.641Z,7.21
2022-12-20T20:58:43.454Z,7.08
2022-12-20T21:01:11.840Z,7.10
2022-12-20T21:03:40.332Z,7.23
2022-12-20T21:08:57.354Z,7.30
2022-12-20T21:11:25.208Z,7.28
2022-12-20T21:13:55.912Z,7.09
2022-12-20T21:16:24.505Z,7.04
2022-12-20T21:18:52.571Z,7.27
2022-12-20T21:21:21.302Z,7.33
2022-12-20T21:23:49.554Z,7.12
2022-12-20T21:26:19.043Z,6.96
2022-12-20T21:28:47.060Z,6.83
2022-12-20T21:31:18.555Z,6.76
2022-12-20T21:33:46.811Z,6.86
2022-12-20T21:36:16.028Z,6.76
2022-12-20T21:38:48.566Z,6.71
2022-12-20T21:41:16.173Z,6.66
2022-12-20T21:43:44.178Z,6.61
2022-12-20T21:46:12.178Z,6.86
2022-12-20T21:48:42.156Z,6.91
2022-12-20T21:51:11.875Z,6.83
2022-12-20T21:53:43.314Z,7.08
2022-12-20T21:56:11.303Z,6.92
2022-12-20T21:58:39.030Z,6.80
2022-12-20T22:01:08.033Z,6.70
2022-12-20T22:03:36.724Z,6.64
2022-12-20T22:06:06.282Z,6.63
2022-12-20T22:08:34.815Z,6.64
2022-12-20T22:11:04.534Z,6.75
2022-12-20T22:13:38.989Z,7.01
2022-12-20T22:16:10.442Z,7.19
2022-12-20T22:18:38.911Z,7.19
2022-12-20T22:21:10.195Z,7.15
2022-12-20T22:23:38.410Z,6.95
2022-12-20T22:26:07.319Z,6.79
2022-12-20T22:28:35.138Z,6.71
2022-12-20T22:31:08.210Z,6.93
2022-12-20T22:33:36.093Z,6.90
2022-12-20T22:36:04.709Z,6.77
2022-12-20T22:38:34.070Z,6.68
2022-12-20T22:41:08.466Z,6.93
2022-12-20T22:43:37.524Z,6.85
2022-12-20T22:46:05.876Z,6.73
2022-12-20T22:49:24.612Z,6.67
2022-12-20T22:52:07.222Z,6.60
2022-12-20T22:54:38.746Z,6.57
2022-12-20T22:57:06.396Z,6.52
2022-12-20T22:59:39.599Z,6.56
2022-12-20T23:02:10.568Z,6.53
2022-12-20T23:04:39.411Z,6.51
2022-12-20T23:07:07.333Z,6.47
2022-12-20T23:09:39.487Z,6.45
2022-12-20T23:12:36.480Z,6.43
2022-12-20T23:15:21.240Z,6.45
2022-12-20T23:17:48.841Z,6.43
2022-12-20T23:20:34.155Z,6.39
2022-12-20T23:23:01.769Z,6.57
2022-12-20T23:25:30.743Z,6.62
2022-12-20T23:27:58.346Z,7.21
2022-12-20T23:30:26.580Z,7.31
2022-12-20T23:32:56.146Z,7.26
2022-12-20T23:35:24.697Z,6.95
2022-12-20T23:37:52.574Z,6.77
2022-12-20T23:40:20.380Z,6.62
2022-12-20T23:42:49.306Z,6.53
2022-12-20T23:45:17.026Z,6.76
2022-12-20T23:47:44.642Z,6.87
2022-12-20T23:50:12.462Z,6.96
2022-12-20T23:52:40.449Z,6.88
2022-12-20T23:55:09.411Z,7.26
2022-12-20T23:57:37.046Z,7.21
